Time;durP1;ratioP1;P1;durP2;ratioP2;P2;SDS_P1;SDS_P2;PMS_P1;PMS_P2;Temp;Humidity;BMP_temperature;BMP_pressure;BME280_temperature;BME280_humidity;BME280_pressure;Samples;Min_cycle;Max_cycle;Signal;HPM_P1;HPM_P2
2024/04/03 00:00:28;;;;;;;;;;;20.70;58.10;;;;;;1589347;73;934;-68
2024/04/03 00:02:30;;;;;;;;;;;20.70;57.60;;;;;;1588294;74;719;-71
2024/04/03 00:04:32;;;;;;;;;;;20.80;58.20;;;;;;1583952;73;624;-67
2024/04/03 00:06:34;;;;;;;;;;;20.70;58.10;;;;;;1591628;73;1142;-66
2024/04/03 00:08:36;;;;;;;;;;;20.70;58.30;;;;;;1593369;73;769;-68
2024/04/03 00:10:38;;;;;;;;;;;20.70;58.20;;;;;;1595380;73;1534;-69
2024/04/03 00:12:40;;;;;;;;;;;20.70;58.30;;;;;;1593143;73;761;-69
2024/04/03 00:14:42;;;;;;;;;;;20.70;58.20;;;;;;1589135;73;808;-66
2024/04/03 00:16:44;;;;;;;;;;;20.60;58.10;;;;;;1596690;73;1152;-67
2024/04/03 00:18:46;;;;;;;;;;;20.70;58.30;;;;;;1602293;73;737;-68
2024/04/03 00:20:47;;;;;;;;;;;20.70;58.30;;;;;;1589015;73;740;-67
2024/04/03 00:22:50;;;;;;;;;;;20.60;58.10;;;;;;1592511;73;791;-68
2024/04/03 00:24:52;;;;;;;;;;;20.80;58.20;;;;;;1597953;73;1929;-68
2024/04/03 00:26:53;;;;;;;;;;;20.70;58.20;;;;;;1601622;73;1132;-69
2024/04/03 00:28:55;;;;;;;;;;;20.80;58.10;;;;;;1590404;73;666;-68
2024/04/03 00:30:59;;;;;;;;;;;20.70;58.20;;;;;;1589350;73;795;-70
2024/04/03 00:33:01;;;;;;;;;;;20.70;58.20;;;;;;1594670;73;1937;-68
2024/04/03 00:35:03;;;;;;;;;;;20.70;58.30;;;;;;1590491;73;727;-69
2024/04/03 00:37:05;;;;;;;;;;;20.60;58.10;;;;;;1596213;73;1150;-67
2024/04/03 00:39:07;;;;;;;;;;;20.60;58.10;;;;;;1591094;73;1596;-69
2024/04/03 00:41:09;;;;;;;;;;;20.70;58.20;;;;;;1592527;73;746;-68
2024/04/03 00:43:14;;;;;;;;;;;20.60;58.10;;;;;;1592942;73;774;-70
2024/04/03 00:45:16;;;;;;;;;;;20.70;58.20;;;;;;1584444;73;1945;-67
2024/04/03 00:47:18;;;;;;;;;;;20.70;58.20;;;;;;1585092;73;1139;-67
2024/04/03 00:49:23;;;;;;;;;;;20.70;58.20;;;;;;1585781;73;780;-67
2024/04/03 00:51:24;;;;;;;;;;;20.60;58.00;;;;;;1589283;73;803;-68
2024/04/03 00:53:26;;;;;;;;;;;20.60;58.10;;;;;;1599705;73;1294;-68
2024/04/03 00:55:28;;;;;;;;;;;20.80;58.10;;;;;;1592835;73;738;-68
2024/04/03 00:57:30;;;;;;;;;;;20.60;58.10;;;;;;1592615;73;1132;-71
2024/04/03 00:59:32;;;;;;;;;;;20.70;58.20;;;;;;1593710;73;753;-67
2024/04/03 01:01:34;;;;;;;;;;;20.70;58.20;;;;;;1587161;73;681;-69
2024/04/03 01:03:37;;;;;;;;;;;20.70;58.20;;;;;;1587775;73;803;-71
2024/04/03 01:05:39;;;;;;;;;;;20.60;58.20;;;;;;1590165;73;1939;-68
2024/04/03 01:07:40;;;;;;;;;;;20.70;58.20;;;;;;1591478;73;1586;-70
2024/04/03 01:09:42;;;;;;;;;;;20.70;58.20;;;;;;1592607;73;735;-67
2024/04/03 01:11:46;;;;;;;;;;;20.60;58.20;;;;;;1590447;73;734;-70
2024/04/03 01:13:48;;;;;;;;;;;20.60;58.10;;;;;;1592657;73;736;-68
2024/04/03 01:15:57;;;;;;;;;;;20.60;58.20;;;;;;1591951;73;730;-68
2024/04/03 01:17:59;;;;;;;;;;;20.70;58.30;;;;;;1581462;73;1159;-67
2024/04/03 01:20:01;;;;;;;;;;;20.70;58.30;;;;;;1591992;73;1554;-67
2024/04/03 01:22:03;;;;;;;;;;;20.60;58.20;;;;;;1590388;73;781;-70
2024/04/03 01:24:05;;;;;;;;;;;20.60;58.30;;;;;;1595651;73;747;-67
2024/04/03 01:26:07;;;;;;;;;;;20.80;58.40;;;;;;1592060;73;1945;-68
2024/04/03 01:28:09;;;;;;;;;;;20.60;58.30;;;;;;1588738;73;1064;-68
2024/04/03 01:30:11;;;;;;;;;;;20.60;58.20;;;;;;1590700;73;740;-68
2024/04/03 01:32:13;;;;;;;;;;;20.70;58.40;;;;;;1582344;73;737;-67
2024/04/03 01:34:15;;;;;;;;;;;20.60;58.30;;;;;;1592669;73;1527;-68
2024/04/03 01:36:19;;;;;;;;;;;20.60;58.40;;;;;;1600601;73;1274;-67
2024/04/03 01:38:21;;;;;;;;;;;20.60;58.40;;;;;;1594621;73;676;-68
2024/04/03 01:40:23;;;;;;;;;;;20.60;58.30;;;;;;1595619;73;763;-70
2024/04/03 01:42:25;;;;;;;;;;;20.70;58.30;;;;;;1592009;73;766;-69
2024/04/03 01:44:27;;;;;;;;;;;20.60;58.20;;;;;;1591963;73;741;-69
2024/04/03 01:46:29;;;;;;;;;;;20.60;58.20;;;;;;1586829;73;1949;-68
2024/04/03 01:48:31;;;;;;;;;;;20.60;58.10;;;;;;1595294;73;1537;-69
2024/04/03 01:50:36;;;;;;;;;;;20.70;58.30;;;;;;1587623;73;641;-68
2024/04/03 01:52:38;;;;;;;;;;;20.60;58.20;;;;;;1593492;73;819;-68
2024/04/03 01:54:40;;;;;;;;;;;20.60;58.30;;;;;;1596665;73;808;-67
2024/04/03 01:56:42;;;;;;;;;;;20.60;58.30;;;;;;1588821;73;1128;-68
2024/04/03 01:58:44;;;;;;;;;;;20.70;58.40;;;;;;1597026;73;780;-69
2024/04/03 02:00:47;;;;;;;;;;;20.60;58.20;;;;;;1583001;73;822;-67
2024/04/03 02:02:49;;;;;;;;;;;20.70;58.30;;;;;;1591599;73;1629;-68
2024/04/03 02:04:51;;;;;;;;;;;20.60;58.20;;;;;;1596087;73;788;-68
2024/04/03 02:06:53;;;;;;;;;;;20.60;58.20;;;;;;1586209;73;1930;-68
2024/04/03 02:08:55;;;;;;;;;;;20.60;58.20;;;;;;1592185;73;680;-66
2024/04/03 02:10:57;;;;;;;;;;;20.70;58.30;;;;;;1595241;73;803;-67
2024/04/03 02:12:59;;;;;;;;;;;20.70;58.30;;;;;;1590209;73;690;-68
2024/04/03 02:15:00;;;;;;;;;;;20.70;58.30;;;;;;1589620;73;753;-69
2024/04/03 02:17:04;;;;;;;;;;;20.70;58.30;;;;;;1586974;73;1594;-67
2024/04/03 02:19:06;;;;;;;;;;;20.60;58.30;;;;;;1599630;73;670;-68
2024/04/03 02:21:07;;;;;;;;;;;20.60;58.20;;;;;;1597802;73;664;-67
2024/04/03 02:23:09;;;;;;;;;;;20.70;58.40;;;;;;1588791;73;749;-68
2024/04/03 02:25:11;;;;;;;;;;;20.70;58.30;;;;;;1597830;73;707;-69
2024/04/03 02:27:13;;;;;;;;;;;20.60;58.10;;;;;;1588844;73;1930;-68
2024/04/03 02:29:15;;;;;;;;;;;20.70;58.40;;;;;;1595619;73;676;-70
2024/04/03 02:31:17;;;;;;;;;;;20.60;58.30;;;;;;1593838;73;1436;-67
2024/04/03 02:33:19;;;;;;;;;;;20.60;58.30;;;;;;1599468;73;689;-68
2024/04/03 02:35:21;;;;;;;;;;;20.60;58.30;;;;;;1602040;73;701;-68
2024/04/03 02:37:22;;;;;;;;;;;20.70;58.40;;;;;;1592979;73;1150;-67
2024/04/03 02:39:24;;;;;;;;;;;20.60;58.30;;;;;;1593639;73;759;-70
2024/04/03 02:41:26;;;;;;;;;;;20.60;58.20;;;;;;1586233;73;726;-67
2024/04/03 02:43:28;;;;;;;;;;;20.60;58.20;;;;;;1588576;73;732;-68
2024/04/03 02:45:30;;;;;;;;;;;20.60;58.20;;;;;;1589521;73;1192;-68
2024/04/03 02:47:32;;;;;;;;;;;20.60;58.30;;;;;;1593571;73;1166;-67
2024/04/03 02:49:34;;;;;;;;;;;20.70;58.40;;;;;;1591063;73;688;-67
2024/04/03 02:51:35;;;;;;;;;;;20.60;58.20;;;;;;1591938;73;674;-68
2024/04/03 02:53:37;;;;;;;;;;;20.60;58.20;;;;;;1587365;73;710;-68
2024/04/03 02:55:40;;;;;;;;;;;20.60;58.20;;;;;;1598811;73;824;-69
2024/04/03 02:57:41;;;;;;;;;;;20.70;58.30;;;;;;1597507;73;1115;-68
2024/04/03 02:59:43;;;;;;;;;;;20.60;58.30;;;;;;1588902;73;1210;-69
2024/04/03 03:01:45;;;;;;;;;;;20.60;58.20;;;;;;1588203;73;708;-68
2024/04/03 03:03:47;;;;;;;;;;;20.70;58.40;;;;;;1594516;73;763;-67
2024/04/03 03:05:49;;;;;;;;;;;20.60;58.20;;;;;;1594896;73;1967;-68
2024/04/03 03:07:51;;;;;;;;;;;20.60;58.30;;;;;;1593997;73;1055;-68
2024/04/03 03:09:53;;;;;;;;;;;20.60;58.40;;;;;;1590120;73;667;-68
2024/04/03 03:11:55;;;;;;;;;;;20.60;58.30;;;;;;1594805;73;741;-69
2024/04/03 03:13:56;;;;;;;;;;;20.60;58.30;;;;;;1602732;73;1527;-67
2024/04/03 03:15:59;;;;;;;;;;;20.60;58.30;;;;;;1596386;73;600;-67
2024/04/03 03:18:01;;;;;;;;;;;20.60;58.20;;;;;;1587376;73;1116;-67
2024/04/03 03:20:03;;;;;;;;;;;20.70;58.50;;;;;;1591685;73;725;-68
2024/04/03 03:22:06;;;;;;;;;;;20.70;58.40;;;;;;1589589;73;707;-67
2024/04/03 03:24:08;;;;;;;;;;;20.70;58.50;;;;;;1591229;73;726;-69
2024/04/03 03:26:10;;;;;;;;;;;20.70;58.40;;;;;;1608001;72;1955;-70
2024/04/03 03:28:12;;;;;;;;;;;20.60;58.30;;;;;;1612242;73;1498;-67
2024/04/03 03:30:14;;;;;;;;;;;20.60;58.30;;;;;;1606652;73;667;-68
2024/04/03 03:32:15;;;;;;;;;;;20.60;58.30;;;;;;1609970;72;792;-68
2024/04/03 03:34:17;;;;;;;;;;;20.60;58.40;;;;;;1604878;72;688;-68
2024/04/03 03:36:19;;;;;;;;;;;20.60;58.30;;;;;;1605364;73;1245;-70
2024/04/03 03:38:21;;;;;;;;;;;20.60;58.30;;;;;;1608755;72;817;-67
2024/04/03 03:40:24;;;;;;;;;;;20.60;58.30;;;;;;1601893;73;806;-68
2024/04/03 03:42:26;;;;;;;;;;;20.60;58.30;;;;;;1613944;73;1669;-68
2024/04/03 03:44:27;;;;;;;;;;;20.70;58.30;;;;;;1608115;72;635;-68
2024/04/03 03:46:29;;;;;;;;;;;20.60;58.20;;;;;;1608250;73;1934;-68
2024/04/03 03:53:11;;;;;;;;;;;20.60;58.30;;;;;;1604247;73;1619;-68
2024/04/03 03:55:13;;;;;;;;;;;20.60;58.30;;;;;;1616250;73;1532;-69
2024/04/03 03:57:14;;;;;;;;;;;20.60;58.40;;;;;;1604958;72;1092;-68
2024/04/03 03:59:16;;;;;;;;;;;20.50;58.40;;;;;;1609653;72;713;-68
2024/04/03 04:01:18;;;;;;;;;;;20.50;58.40;;;;;;1619062;73;821;-69
2024/04/03 04:03:20;;;;;;;;;;;20.60;58.40;;;;;;1612357;72;783;-69
2024/04/03 04:05:22;;;;;;;;;;;20.50;58.30;;;;;;1604338;73;741;-69
2024/04/03 04:07:24;;;;;;;;;;;20.50;58.30;;;;;;1602613;73;1933;-67
2024/04/03 04:09:26;;;;;;;;;;;20.60;58.20;;;;;;1609957;72;1557;-69
2024/04/03 04:11:28;;;;;;;;;;;20.60;58.20;;;;;;1611492;73;736;-71
2024/04/03 04:13:30;;;;;;;;;;;20.60;58.30;;;;;;1607177;73;740;-69
2024/04/03 04:15:32;;;;;;;;;;;20.60;58.20;;;;;;1607617;73;688;-68
2024/04/03 04:17:33;;;;;;;;;;;20.60;58.20;;;;;;1606343;72;1149;-70
2024/04/03 04:19:35;;;;;;;;;;;20.60;58.10;;;;;;1608815;72;845;-71
2024/04/03 04:21:37;;;;;;;;;;;20.60;58.10;;;;;;1606370;73;704;-69
2024/04/03 04:23:39;;;;;;;;;;;20.60;58.00;;;;;;1611560;72;1563;-70
2024/04/03 04:25:41;;;;;;;;;;;20.70;58.10;;;;;;1617146;72;895;-67
2024/04/03 04:27:43;;;;;;;;;;;20.60;57.50;;;;;;1612649;73;1940;-68
2024/04/03 04:29:45;;;;;;;;;;;20.70;57.60;;;;;;1600939;73;786;-70
2024/04/03 04:31:47;;;;;;;;;;;20.70;57.40;;;;;;1602134;72;794;-69
2024/04/03 04:33:49;;;;;;;;;;;20.60;57.30;;;;;;1571486;74;980;-69
2024/04/03 04:35:56;;;;;;;;;;;20.60;57.20;;;;;;1539540;75;1100;-69
2024/04/03 04:37:57;;;;;;;;;;;20.60;57.10;;;;;;1561345;73;1601;-69
2024/04/03 04:39:59;;;;;;;;;;;20.60;57.10;;;;;;1541157;76;780;-68
2024/04/03 04:42:01;;;;;;;;;;;20.60;57.00;;;;;;1573841;73;730;-70
2024/04/03 04:44:03;;;;;;;;;;;20.70;57.10;;;;;;1580373;74;738;-69
2024/04/03 04:46:05;;;;;;;;;;;20.60;57.00;;;;;;1577111;74;871;-69
2024/04/03 04:48:07;;;;;;;;;;;20.60;56.90;;;;;;1571842;74;1958;-70
2024/04/03 04:50:10;;;;;;;;;;;20.70;57.00;;;;;;1581636;74;827;-68
2024/04/03 04:52:12;;;;;;;;;;;20.70;57.10;;;;;;1578340;74;1592;-70
2024/04/03 04:54:17;;;;;;;;;;;20.60;56.90;;;;;;1576439;74;830;-68
2024/04/03 04:56:19;;;;;;;;;;;20.60;57.10;;;;;;1576746;74;1137;-72
2024/04/03 04:58:21;;;;;;;;;;;20.60;57.10;;;;;;1574277;74;792;-69
2024/04/03 05:00:23;;;;;;;;;;;20.60;57.20;;;;;;1571359;74;716;-67
2024/04/03 05:02:25;;;;;;;;;;;20.60;57.10;;;;;;1564677;74;667;-66
2024/04/03 05:04:28;;;;;;;;;;;20.70;57.30;;;;;;1573941;74;709;-65
2024/04/03 05:06:30;;;;;;;;;;;20.60;56.70;;;;;;1578488;74;1919;-66
2024/04/03 05:08:31;;;;;;;;;;;20.70;54.40;;;;;;1571141;74;701;-65
2024/04/03 05:10:34;;;;;;;;;;;20.60;52.90;;;;;;1584329;74;687;-66
2024/04/03 05:12:36;;;;;;;;;;;20.50;51.00;;;;;;1585743;74;1033;-66
2024/04/03 05:14:38;;;;;;;;;;;20.50;51.50;;;;;;1574242;74;663;-67
2024/04/03 05:16:40;;;;;;;;;;;20.40;51.10;;;;;;1572353;74;1142;-65
2024/04/03 05:18:42;;;;;;;;;;;20.40;51.50;;;;;;1571395;74;679;-64
2024/04/03 05:20:44;;;;;;;;;;;20.30;51.20;;;;;;1579680;74;1536;-67
2024/04/03 05:22:46;;;;;;;;;;;20.30;50.30;;;;;;1574630;74;703;-66
2024/04/03 05:24:49;;;;;;;;;;;20.30;50.10;;;;;;1569038;74;684;-67
2024/04/03 05:26:51;;;;;;;;;;;20.20;49.40;;;;;;1572616;74;1951;-66
2024/04/03 05:28:53;;;;;;;;;;;20.30;49.80;;;;;;1566928;74;721;-66
2024/04/03 05:30:56;;;;;;;;;;;20.20;49.20;;;;;;1573024;74;715;-67
2024/04/03 05:32:58;;;;;;;;;;;20.20;48.90;;;;;;1589495;74;990;-66
2024/04/03 05:34:59;;;;;;;;;;;20.20;47.70;;;;;;1577132;74;1574;-67
2024/04/03 05:37:01;;;;;;;;;;;20.20;47.70;;;;;;1572150;74;1164;-66
2024/04/03 05:39:03;;;;;;;;;;;20.10;46.40;;;;;;1585631;74;777;-67
2024/04/03 05:41:05;;;;;;;;;;;20.10;45.40;;;;;;1584266;74;729;-67
2024/04/03 05:43:07;;;;;;;;;;;20.10;45.90;;;;;;1578522;74;797;-66
2024/04/03 05:45:09;;;;;;;;;;;20.00;45.30;;;;;;1586055;74;749;-66
2024/04/03 05:47:11;;;;;;;;;;;20.00;45.00;;;;;;1585155;74;1964;-65
2024/04/03 05:49:13;;;;;;;;;;;19.90;44.70;;;;;;1567605;74;784;-66
2024/04/03 05:51:15;;;;;;;;;;;19.90;43.80;;;;;;1588175;74;732;-65
2024/04/03 05:53:16;;;;;;;;;;;19.90;44.40;;;;;;1572857;74;680;-66
2024/04/03 05:55:18;;;;;;;;;;;19.90;44.30;;;;;;1580099;74;670;-68
2024/04/03 05:57:20;;;;;;;;;;;19.80;43.90;;;;;;1588928;74;1108;-65
2024/04/03 05:59:22;;;;;;;;;;;19.80;43.90;;;;;;1573004;74;752;-66
2024/04/03 06:01:24;;;;;;;;;;;19.80;44.30;;;;;;1581855;74;1513;-65
2024/04/03 06:03:26;;;;;;;;;;;19.80;44.20;;;;;;1571931;74;792;-67
2024/04/03 06:05:28;;;;;;;;;;;19.80;43.30;;;;;;1573528;74;766;-68
2024/04/03 06:07:30;;;;;;;;;;;19.80;43.00;;;;;;1575744;74;1962;-66
2024/04/03 06:09:31;;;;;;;;;;;19.70;43.50;;;;;;1581762;74;724;-68
2024/04/03 06:11:33;;;;;;;;;;;19.70;43.70;;;;;;1589627;74;671;-65
2024/04/03 06:13:35;;;;;;;;;;;19.70;43.80;;;;;;1574972;74;719;-66
2024/04/03 06:15:37;;;;;;;;;;;19.70;43.30;;;;;;1578566;74;1339;-67
2024/04/03 06:17:39;;;;;;;;;;;19.70;43.60;;;;;;1578894;74;1077;-67
2024/04/03 06:19:41;;;;;;;;;;;19.80;43.10;;;;;;1579588;74;674;-68
2024/04/03 06:21:43;;;;;;;;;;;19.70;43.80;;;;;;1573840;74;701;-65
2024/04/03 06:23:45;;;;;;;;;;;19.70;43.20;;;;;;1579296;74;753;-66
2024/04/03 06:25:46;;;;;;;;;;;19.80;43.00;;;;;;1581574;74;795;-68
2024/04/03 06:27:48;;;;;;;;;;;19.70;42.10;;;;;;1584317;74;1953;-68
2024/04/03 06:29:50;;;;;;;;;;;19.70;42.60;;;;;;1575655;74;1555;-66
2024/04/03 06:31:52;;;;;;;;;;;19.70;42.30;;;;;;1575210;74;584;-66
2024/04/03 06:33:56;;;;;;;;;;;19.70;42.40;;;;;;1580907;74;712;-67
2024/04/03 06:35:58;;;;;;;;;;;19.70;41.20;;;;;;1573271;74;1685;-66
2024/04/03 06:38:00;;;;;;;;;;;19.60;41.90;;;;;;1584935;74;1166;-67
2024/04/03 06:40:02;;;;;;;;;;;19.70;41.30;;;;;;1584859;74;677;-65
2024/04/03 06:42:04;;;;;;;;;;;19.60;41.50;;;;;;1578439;74;719;-66
2024/04/03 06:44:06;;;;;;;;;;;19.60;41.50;;;;;;1570549;74;1528;-66
2024/04/03 06:46:08;;;;;;;;;;;19.70;41.40;;;;;;1574522;74;725;-65
2024/04/03 06:48:10;;;;;;;;;;;19.60;41.00;;;;;;1576356;74;1959;-68
2024/04/03 06:50:12;;;;;;;;;;;19.70;40.60;;;;;;1578329;74;769;-66
2024/04/03 06:52:14;;;;;;;;;;;19.60;40.90;;;;;;1585314;74;706;-66
2024/04/03 06:54:18;;;;;;;;;;;19.60;41.50;;;;;;1583508;74;715;-66
2024/04/03 06:56:19;;;;;;;;;;;19.50;41.60;;;;;;1586552;74;1651;-66
2024/04/03 06:58:22;;;;;;;;;;;19.60;40.10;;;;;;1580174;74;1583;-66
2024/04/03 07:00:24;;;;;;;;;;;19.60;39.70;;;;;;1581995;74;680;-67
2024/04/03 07:02:27;;;;;;;;;;;19.60;39.30;;;;;;1588629;74;747;-64
2024/04/03 07:04:29;;;;;;;;;;;19.50;39.40;;;;;;1582872;74;728;-66
2024/04/03 07:06:33;;;;;;;;;;;19.50;38.60;;;;;;1586510;74;1139;-66
2024/04/03 07:08:34;;;;;;;;;;;19.50;39.40;;;;;;1571478;74;1914;-66
2024/04/03 07:10:36;;;;;;;;;;;19.50;38.70;;;;;;1583138;74;660;-67
2024/04/03 07:12:38;;;;;;;;;;;19.50;39.80;;;;;;1574686;74;1366;-68
2024/04/03 07:14:40;;;;;;;;;;;19.50;40.30;;;;;;1571880;74;799;-69
2024/04/03 07:16:43;;;;;;;;;;;19.60;40.80;;;;;;1583639;74;1125;-67
2024/04/03 07:18:45;;;;;;;;;;;19.50;41.10;;;;;;1581674;74;1836;-68
2024/04/03 07:20:54;;;;;;;;;;;19.50;41.30;;;;;;1584348;74;1099;-68
2024/04/03 07:22:56;;;;;;;;;;;19.60;41.50;;;;;;1576852;74;1242;-68
2024/04/03 07:24:58;;;;;;;;;;;19.60;41.60;;;;;;1573246;74;1338;-68
2024/04/03 07:27:00;;;;;;;;;;;19.60;41.70;;;;;;1580313;74;1513;-68
2024/04/03 07:29:02;;;;;;;;;;;19.60;41.80;;;;;;1576795;74;1934;-68
2024/04/03 07:31:04;;;;;;;;;;;19.70;42.10;;;;;;1575792;74;1332;-68
2024/04/03 07:33:08;;;;;;;;;;;19.60;42.20;;;;;;1575230;74;1292;-71
2024/04/03 07:35:09;;;;;;;;;;;19.60;42.30;;;;;;1574600;74;1714;-68
2024/04/03 07:37:11;;;;;;;;;;;20.10;42.80;;;;;;1571470;74;1431;-68
2024/04/03 07:39:13;;;;;;;;;;;19.70;42.70;;;;;;1584794;74;1170;-70
2024/04/03 07:41:31;;;;;;;;;;;19.70;42.80;;;;;;1575203;74;1525;-68
2024/04/03 07:43:32;;;;;;;;;;;19.70;42.80;;;;;;1573664;74;734;-69
2024/04/03 07:45:34;;;;;;;;;;;19.70;43.00;;;;;;1573198;74;725;-68
2024/04/03 07:47:36;;;;;;;;;;;19.70;43.10;;;;;;1578290;74;1940;-68
2024/04/03 07:49:38;;;;;;;;;;;19.70;43.20;;;;;;1581937;74;773;-67
2024/04/03 07:51:41;;;;;;;;;;;19.70;43.30;;;;;;1580350;74;813;-68
2024/04/03 07:53:43;;;;;;;;;;;19.70;43.40;;;;;;1577012;74;792;-68
2024/04/03 07:55:46;;;;;;;;;;;19.70;43.40;;;;;;1578659;74;1694;-66
2024/04/03 07:57:48;;;;;;;;;;;19.70;43.50;;;;;;1581207;74;2317;-67
2024/04/03 07:59:50;;;;;;;;;;;19.80;43.60;;;;;;1580136;74;713;-66
2024/04/03 08:01:52;;;;;;;;;;;19.80;43.60;;;;;;1575568;74;796;-68
2024/04/03 08:03:54;;;;;;;;;;;19.80;43.70;;;;;;1571980;74;665;-66
2024/04/03 08:05:56;;;;;;;;;;;19.80;43.80;;;;;;1579752;74;756;-68
2024/04/03 08:07:58;;;;;;;;;;;19.80;43.80;;;;;;1579621;74;1934;-68
2024/04/03 08:10:03;;;;;;;;;;;19.80;43.90;;;;;;1580914;74;654;-70
2024/04/03 08:12:05;;;;;;;;;;;19.80;44.00;;;;;;1579786;74;793;-68
2024/04/03 08:14:07;;;;;;;;;;;19.80;44.10;;;;;;1581285;74;736;-68
2024/04/03 08:16:09;;;;;;;;;;;19.80;44.10;;;;;;1571873;74;766;-68
2024/04/03 08:18:11;;;;;;;;;;;19.90;44.30;;;;;;1577582;74;1130;-68
2024/04/03 08:20:13;;;;;;;;;;;19.80;44.20;;;;;;1574709;74;742;-68
2024/04/03 08:22:15;;;;;;;;;;;19.80;44.30;;;;;;1586855;74;1587;-70
2024/04/03 08:24:17;;;;;;;;;;;19.90;44.50;;;;;;1584727;74;756;-68
2024/04/03 08:26:19;;;;;;;;;;;19.90;44.50;;;;;;1575466;74;1139;-69
2024/04/03 08:28:21;;;;;;;;;;;19.90;44.60;;;;;;1585664;74;1918;-69
2024/04/03 08:30:23;;;;;;;;;;;19.90;44.50;;;;;;1575475;74;853;-68
2024/04/03 08:32:25;;;;;;;;;;;19.90;44.60;;;;;;1566215;74;835;-69
2024/04/03 08:34:27;;;;;;;;;;;19.80;44.50;;;;;;1562365;74;786;-69
2024/04/03 08:36:29;;;;;;;;;;;19.90;44.70;;;;;;1575931;74;1563;-70
2024/04/03 08:38:31;;;;;;;;;;;19.90;44.80;;;;;;1583494;74;1306;-68
2024/04/03 08:40:33;;;;;;;;;;;19.90;44.80;;;;;;1584616;74;683;-69
2024/04/03 08:42:34;;;;;;;;;;;19.90;44.90;;;;;;1573702;74;717;-69
2024/04/03 08:44:36;;;;;;;;;;;19.90;45.00;;;;;;1576877;74;686;-67
2024/04/03 08:46:38;;;;;;;;;;;19.90;45.00;;;;;;1577590;74;1123;-68
2024/04/03 08:48:40;;;;;;;;;;;19.90;45.10;;;;;;1575859;74;1912;-69
2024/04/03 08:50:42;;;;;;;;;;;19.90;45.10;;;;;;1592244;74;1534;-66
2024/04/03 08:52:44;;;;;;;;;;;19.90;45.20;;;;;;1579934;74;734;-68
2024/04/03 08:54:47;;;;;;;;;;;19.80;45.20;;;;;;1583181;74;680;-68
2024/04/03 08:56:50;;;;;;;;;;;19.80;45.20;;;;;;1581409;74;1108;-67
2024/04/03 08:58:52;;;;;;;;;;;19.90;45.30;;;;;;1590040;74;844;-70
2024/04/03 09:00:53;;;;;;;;;;;19.90;45.40;;;;;;1577928;74;792;-68
2024/04/03 09:02:59;;;;;;;;;;;20.00;45.40;;;;;;1572344;74;748;-71
2024/04/03 09:05:00;;;;;;;;;;;19.90;45.40;;;;;;1585488;74;1493;-69
2024/04/03 09:07:02;;;;;;;;;;;19.90;45.50;;;;;;1579585;74;1122;-67
2024/04/03 09:09:04;;;;;;;;;;;19.90;45.60;;;;;;1571563;74;1959;-68
2024/04/03 09:11:06;;;;;;;;;;;19.90;45.50;;;;;;1569936;74;622;-67
2024/04/03 09:13:08;;;;;;;;;;;20.00;45.60;;;;;;1588649;74;781;-71
2024/04/03 09:15:10;;;;;;;;;;;19.90;45.70;;;;;;1580791;74;780;-69
2024/04/03 09:17:12;;;;;;;;;;;19.90;45.70;;;;;;1585613;74;1147;-70
2024/04/03 09:19:14;;;;;;;;;;;19.70;45.70;;;;;;1582200;74;1353;-69
2024/04/03 09:21:19;;;;;;;;;;;19.90;45.80;;;;;;1574414;74;712;-69
2024/04/03 09:23:21;;;;;;;;;;;19.90;45.80;;;;;;1581600;74;716;-68
2024/04/03 09:25:26;;;;;;;;;;;20.00;45.80;;;;;;1584206;74;758;-69
2024/04/03 09:27:28;;;;;;;;;;;19.90;45.80;;;;;;1582483;74;1119;-67
2024/04/03 09:29:30;;;;;;;;;;;20.00;45.90;;;;;;1568890;74;1930;-68
2024/04/03 09:31:32;;;;;;;;;;;20.20;46.10;;;;;;1580433;74;810;-68
2024/04/03 09:33:34;;;;;;;;;;;20.00;46.00;;;;;;1576164;74;1520;-68
2024/04/03 09:35:38;;;;;;;;;;;19.90;46.00;;;;;;1579253;74;718;-69
2024/04/03 09:37:40;;;;;;;;;;;20.00;46.10;;;;;;1581998;74;1330;-68
2024/04/03 09:39:42;;;;;;;;;;;19.90;46.20;;;;;;1574393;74;720;-67
2024/04/03 09:41:44;;;;;;;;;;;20.00;46.20;;;;;;1573182;74;731;-70
2024/04/03 09:43:47;;;;;;;;;;;20.00;46.20;;;;;;1575053;74;750;-69
2024/04/03 09:45:50;;;;;;;;;;;20.00;46.20;;;;;;1576227;74;826;-69
2024/04/03 09:47:59;;;;;;;;;;;19.90;46.30;;;;;;1573086;74;1627;-68
2024/04/03 09:50:02;;;;;;;;;;;20.00;46.30;;;;;;1586631;74;1884;-69
2024/04/03 09:52:04;;;;;;;;;;;19.90;46.30;;;;;;1569766;74;716;-67
2024/04/03 09:54:06;;;;;;;;;;;19.90;46.40;;;;;;1584118;74;780;-68
2024/04/03 09:56:08;;;;;;;;;;;19.90;46.40;;;;;;1575988;74;727;-68
2024/04/03 09:58:10;;;;;;;;;;;20.00;46.50;;;;;;1581916;74;1061;-67
2024/04/03 10:00:14;;;;;;;;;;;20.00;46.50;;;;;;1587176;74;660;-67
2024/04/03 10:02:16;;;;;;;;;;;20.00;46.50;;;;;;1578985;74;1708;-69
2024/04/03 10:04:18;;;;;;;;;;;19.90;46.50;;;;;;1580760;74;800;-68
2024/04/03 10:06:22;;;;;;;;;;;20.00;46.60;;;;;;1585706;74;1083;-68
2024/04/03 10:08:24;;;;;;;;;;;20.00;46.60;;;;;;1579954;74;1936;-71
2024/04/03 10:10:26;;;;;;;;;;;20.00;46.60;;;;;;1580462;74;760;-68
2024/04/03 10:12:28;;;;;;;;;;;20.00;46.60;;;;;;1577749;74;607;-67
2024/04/03 10:14:32;;;;;;;;;;;20.00;46.60;;;;;;1579884;74;1582;-67
2024/04/03 10:16:34;;;;;;;;;;;20.00;46.70;;;;;;1575887;74;1143;-68
2024/04/03 10:18:36;;;;;;;;;;;20.00;46.70;;;;;;1585789;74;879;-68
2024/04/03 10:20:38;;;;;;;;;;;20.00;46.70;;;;;;1581309;74;715;-67
2024/04/03 10:22:42;;;;;;;;;;;20.00;46.70;;;;;;1583455;74;742;-70
2024/04/03 10:24:45;;;;;;;;;;;20.00;46.70;;;;;;1580728;74;742;-67
2024/04/03 10:26:47;;;;;;;;;;;20.00;46.40;;;;;;1575004;74;1207;-67
2024/04/03 10:28:49;;;;;;;;;;;20.00;46.60;;;;;;1589468;74;1924;-68
2024/04/03 10:30:55;;;;;;;;;;;20.10;46.80;;;;;;1576174;74;707;-68
2024/04/03 10:32:58;;;;;;;;;;;20.00;46.70;;;;;;1590185;74;782;-68
2024/04/03 10:35:00;;;;;;;;;;;20.00;46.70;;;;;;1575686;74;712;-70
2024/04/03 10:37:03;;;;;;;;;;;20.10;46.80;;;;;;1584899;74;1128;-68
2024/04/03 10:39:05;;;;;;;;;;;20.00;46.80;;;;;;1575734;74;760;-68
2024/04/03 10:41:07;;;;;;;;;;;20.00;46.80;;;;;;1589330;74;756;-67
2024/04/03 10:43:09;;;;;;;;;;;20.00;46.80;;;;;;1574304;74;1693;-67
2024/04/03 10:45:11;;;;;;;;;;;20.00;46.80;;;;;;1585740;74;609;-68
2024/04/03 10:47:13;;;;;;;;;;;20.00;46.80;;;;;;1580269;74;1158;-71
2024/04/03 10:49:15;;;;;;;;;;;20.00;46.80;;;;;;1578414;74;1924;-71
2024/04/03 10:51:17;;;;;;;;;;;20.00;46.80;;;;;;1581003;74;802;-70
2024/04/03 10:53:20;;;;;;;;;;;20.00;46.80;;;;;;1579390;74;764;-72
2024/04/03 10:55:23;;;;;;;;;;;20.00;46.80;;;;;;1583402;74;717;-68
2024/04/03 10:57:26;;;;;;;;;;;20.00;46.80;;;;;;1584410;74;1159;-67
2024/04/03 10:59:28;;;;;;;;;;;20.10;47.00;;;;;;1582331;74;638;-68
2024/04/03 11:01:30;;;;;;;;;;;20.10;47.00;;;;;;1583280;74;733;-70
2024/04/03 11:03:33;;;;;;;;;;;20.10;47.00;;;;;;1582124;74;741;-68
2024/04/03 11:05:36;;;;;;;;;;;20.00;46.60;;;;;;1585778;74;564;-69
2024/04/03 11:07:38;;;;;;;;;;;20.00;46.80;;;;;;1582297;74;1135;-71
2024/04/03 11:09:44;;;;;;;;;;;20.10;46.90;;;;;;1575367;74;1934;-68
2024/04/03 11:11:46;;;;;;;;;;;20.00;46.80;;;;;;1581903;74;1249;-68
2024/04/03 11:13:50;;;;;;;;;;;20.10;46.90;;;;;;1582454;74;1462;-71
2024/04/03 11:15:54;;;;;;;;;;;20.00;46.80;;;;;;1571212;74;767;-68
2024/04/03 11:17:57;;;;;;;;;;;20.00;46.80;;;;;;1579317;74;1141;-70
2024/04/03 11:19:58;;;;;;;;;;;20.00;46.80;;;;;;1577518;74;737;-69
2024/04/03 11:22:00;;;;;;;;;;;20.10;47.00;;;;;;1578478;74;709;-67
2024/04/03 11:24:03;;;;;;;;;;;20.00;46.80;;;;;;1581751;74;782;-68
2024/04/03 11:26:05;;;;;;;;;;;20.10;47.00;;;;;;1573172;74;762;-67
2024/04/03 11:28:07;;;;;;;;;;;20.10;47.00;;;;;;1578710;74;1102;-69
2024/04/03 11:30:08;;;;;;;;;;;20.00;46.80;;;;;;1574613;74;1927;-70
2024/04/03 11:32:10;;;;;;;;;;;20.00;46.90;;;;;;1588584;74;659;-66
2024/04/03 11:34:12;;;;;;;;;;;20.10;47.00;;;;;;1586927;74;781;-69
2024/04/03 11:36:17;;;;;;;;;;;20.00;46.90;;;;;;1588464;74;781;-69
2024/04/03 11:38:18;;;;;;;;;;;20.10;47.10;;;;;;1570980;74;1652;-69
2024/04/03 11:40:19;;;;;;;;;;;20.00;46.90;;;;;;1586568;74;736;-68
2024/04/03 11:42:21;;;;;;;;;;;20.10;47.10;;;;;;1570455;74;846;-66
2024/04/03 11:44:24;;;;;;;;;;;20.10;47.10;;;;;;1575353;74;790;-69
2024/04/03 11:46:25;;;;;;;;;;;20.10;47.10;;;;;;1572777;74;1188;-68
2024/04/03 11:48:27;;;;;;;;;;;20.00;46.90;;;;;;1574826;74;733;-68
2024/04/03 11:50:29;;;;;;;;;;;20.00;46.90;;;;;;1577495;74;1938;-68
2024/04/03 11:52:32;;;;;;;;;;;20.00;46.90;;;;;;1589927;74;733;-70
2024/04/03 11:54:33;;;;;;;;;;;20.00;46.90;;;;;;1581890;73;757;-69
2024/04/03 11:56:35;;;;;;;;;;;20.10;47.10;;;;;;1588228;74;1095;-71
2024/04/03 11:58:37;;;;;;;;;;;20.10;47.00;;;;;;1574701;74;762;-69
2024/04/03 12:00:39;;;;;;;;;;;20.00;46.90;;;;;;1585711;74;794;-68
2024/04/03 12:02:41;;;;;;;;;;;20.10;47.00;;;;;;1575124;74;811;-67
2024/04/03 12:04:43;;;;;;;;;;;20.10;47.10;;;;;;1574521;74;665;-68
2024/04/03 12:06:45;;;;;;;;;;;20.10;47.10;;;;;;1574909;74;1149;-68
2024/04/03 12:08:49;;;;;;;;;;;20.10;47.10;;;;;;1568151;74;698;-68
2024/04/03 12:10:51;;;;;;;;;;;20.00;46.90;;;;;;1582513;74;1936;-67
2024/04/03 12:12:53;;;;;;;;;;;20.00;46.90;;;;;;1578215;74;847;-68